sensor_id;sensor_type;location;lat;lon;timestamp;P1;durP1;ratioP1;P2;durP2;ratioP2
21562;SDS011;10942;47.894;11.424;2023-04-10T00:02:21;9.98;;;5.88;;
21562;SDS011;10942;47.894;11.424;2023-04-10T00:04:47;9.75;;;6.18;;
21562;SDS011;10942;47.894;11.424;2023-04-10T00:07:13;10.82;;;7.07;;
21562;SDS011;10942;47.894;11.424;2023-04-10T00:09:38;12.88;;;7.80;;
21562;SDS011;10942;47.894;11.424;2023-04-10T00:12:04;13.43;;;7.10;;
21562;SDS011;10942;47.894;11.424;2023-04-10T00:14:31;11.93;;;6.93;;
21562;SDS011;10942;47.894;11.424;2023-04-10T00:16:57;12.07;;;7.07;;
21562;SDS011;10942;47.894;11.424;2023-04-10T00:19:22;12.80;;;7.60;;
21562;SDS011;10942;47.894;11.424;2023-04-10T00:21:48;20.95;;;12.70;;
21562;SDS011;10942;47.894;11.424;2023-04-10T00:24:14;13.38;;;8.18;;
21562;SDS011;10942;47.894;11.424;2023-04-10T00:26:39;15.77;;;8.98;;
21562;SDS011;10942;47.894;11.424;2023-04-10T00:29:06;15.75;;;8.57;;
21562;SDS011;10942;47.894;11.424;2023-04-10T00:31:32;15.73;;;9.23;;
21562;SDS011;10942;47.894;11.424;2023-04-10T00:33:58;13.27;;;8.18;;
21562;SDS011;10942;47.894;11.424;2023-04-10T00:36:24;16.75;;;8.27;;
21562;SDS011;10942;47.894;11.424;2023-04-10T00:38:51;57.08;;;21.02;;
21562;SDS011;10942;47.894;11.424;2023-04-10T00:41:16;21.38;;;10.93;;
21562;SDS011;10942;47.894;11.424;2023-04-10T00:43:43;15.70;;;9.00;;
21562;SDS011;10942;47.894;11.424;2023-04-10T00:46:09;14.50;;;8.93;;
21562;SDS011;10942;47.894;11.424;2023-04-10T00:48:35;17.42;;;8.98;;
21562;SDS011;10942;47.894;11.424;2023-04-10T00:51:02;26.15;;;12.68;;
21562;SDS011;10942;47.894;11.424;2023-04-10T00:53:28;30.77;;;13.90;;
21562;SDS011;10942;47.894;11.424;2023-04-10T00:55:55;29.00;;;14.73;;
21562;SDS011;10942;47.894;11.424;2023-04-10T00:58:21;31.55;;;14.38;;
21562;SDS011;10942;47.894;11.424;2023-04-10T01:00:47;33.75;;;15.48;;
21562;SDS011;10942;47.894;11.424;2023-04-10T01:03:13;25.52;;;11.88;;
21562;SDS011;10942;47.894;11.424;2023-04-10T01:05:43;18.63;;;10.15;;
21562;SDS011;10942;47.894;11.424;2023-04-10T01:11:04;16.27;;;9.25;;
21562;SDS011;10942;47.894;11.424;2023-04-10T01:13:49;16.35;;;8.80;;
21562;SDS011;10942;47.894;11.424;2023-04-10T01:16:25;14.88;;;8.25;;
21562;SDS011;10942;47.894;11.424;2023-04-10T01:19:09;13.20;;;7.20;;
21562;SDS011;10942;47.894;11.424;2023-04-10T01:21:50;12.38;;;7.80;;
21562;SDS011;10942;47.894;11.424;2023-04-10T01:27:18;15.55;;;8.52;;
21562;SDS011;10942;47.894;11.424;2023-04-10T01:30:00;16.88;;;9.00;;
21562;SDS011;10942;47.894;11.424;2023-04-10T01:32:29;14.60;;;8.80;;
21562;SDS011;10942;47.894;11.424;2023-04-10T01:34:58;16.00;;;8.43;;
21562;SDS011;10942;47.894;11.424;2023-04-10T01:37:29;16.58;;;8.90;;
21562;SDS011;10942;47.894;11.424;2023-04-10T01:40:05;15.10;;;9.23;;
21562;SDS011;10942;47.894;11.424;2023-04-10T01:42:37;12.27;;;7.20;;
21562;SDS011;10942;47.894;11.424;2023-04-10T01:45:07;13.38;;;6.93;;
21562;SDS011;10942;47.894;11.424;2023-04-10T01:47:40;15.50;;;6.80;;
21562;SDS011;10942;47.894;11.424;2023-04-10T01:50:07;10.93;;;6.28;;
21562;SDS011;10942;47.894;11.424;2023-04-10T01:52:34;11.52;;;6.68;;
21562;SDS011;10942;47.894;11.424;2023-04-10T01:55:19;12.75;;;7.28;;
21562;SDS011;10942;47.894;11.424;2023-04-10T01:57:50;12.32;;;7.07;;
21562;SDS011;10942;47.894;11.424;2023-04-10T02:00:18;14.75;;;7.72;;
21562;SDS011;10942;47.894;11.424;2023-04-10T02:02:44;11.65;;;6.95;;
21562;SDS011;10942;47.894;11.424;2023-04-10T02:05:10;13.55;;;6.93;;
21562;SDS011;10942;47.894;11.424;2023-04-10T02:07:43;13.10;;;7.60;;
21562;SDS011;10942;47.894;11.424;2023-04-10T02:10:21;13.43;;;7.30;;
21562;SDS011;10942;47.894;11.424;2023-04-10T02:12:54;13.93;;;7.60;;
21562;SDS011;10942;47.894;11.424;2023-04-10T02:17:56;11.82;;;6.97;;
21562;SDS011;10942;47.894;11.424;2023-04-10T02:20:24;14.95;;;7.35;;
21562;SDS011;10942;47.894;11.424;2023-04-10T02:22:50;12.43;;;7.30;;
21562;SDS011;10942;47.894;11.424;2023-04-10T02:25:17;13.98;;;7.28;;
21562;SDS011;10942;47.894;11.424;2023-04-10T02:27:43;12.43;;;7.10;;
21562;SDS011;10942;47.894;11.424;2023-04-10T02:30:09;12.30;;;7.43;;
21562;SDS011;10942;47.894;11.424;2023-04-10T02:32:35;10.60;;;6.78;;
21562;SDS011;10942;47.894;11.424;2023-04-10T02:35:01;11.38;;;6.63;;
21562;SDS011;10942;47.894;11.424;2023-04-10T02:37:28;14.15;;;6.95;;
21562;SDS011;10942;47.894;11.424;2023-04-10T02:39:57;18.55;;;9.50;;
21562;SDS011;10942;47.894;11.424;2023-04-10T02:42:24;16.77;;;9.23;;
21562;SDS011;10942;47.894;11.424;2023-04-10T02:44:53;17.73;;;9.43;;
21562;SDS011;10942;47.894;11.424;2023-04-10T02:47:19;18.98;;;9.48;;
21562;SDS011;10942;47.894;11.424;2023-04-10T02:49:46;17.73;;;9.15;;
21562;SDS011;10942;47.894;11.424;2023-04-10T02:52:14;21.52;;;11.45;;
21562;SDS011;10942;47.894;11.424;2023-04-10T02:54:41;23.83;;;12.50;;
21562;SDS011;10942;47.894;11.424;2023-04-10T02:57:07;23.48;;;12.30;;
21562;SDS011;10942;47.894;11.424;2023-04-10T02:59:32;14.80;;;8.77;;
21562;SDS011;10942;47.894;11.424;2023-04-10T03:01:59;16.40;;;8.18;;
21562;SDS011;10942;47.894;11.424;2023-04-10T03:04:26;14.05;;;8.27;;
21562;SDS011;10942;47.894;11.424;2023-04-10T03:06:53;14.18;;;7.82;;
21562;SDS011;10942;47.894;11.424;2023-04-10T03:09:18;14.90;;;8.18;;
21562;SDS011;10942;47.894;11.424;2023-04-10T03:11:44;13.45;;;7.90;;
21562;SDS011;10942;47.894;11.424;2023-04-10T03:14:10;11.32;;;6.93;;
21562;SDS011;10942;47.894;11.424;2023-04-10T03:16:36;15.13;;;8.32;;
21562;SDS011;10942;47.894;11.424;2023-04-10T03:19:02;13.68;;;7.68;;
21562;SDS011;10942;47.894;11.424;2023-04-10T03:21:28;12.27;;;7.57;;
21562;SDS011;10942;47.894;11.424;2023-04-10T03:23:54;13.93;;;7.35;;
21562;SDS011;10942;47.894;11.424;2023-04-10T03:26:20;11.98;;;7.05;;
21562;SDS011;10942;47.894;11.424;2023-04-10T03:28:48;12.43;;;7.50;;
21562;SDS011;10942;47.894;11.424;2023-04-10T03:31:15;12.80;;;7.63;;
21562;SDS011;10942;47.894;11.424;2023-04-10T03:33:42;13.88;;;8.30;;
21562;SDS011;10942;47.894;11.424;2023-04-10T03:36:08;13.10;;;8.05;;
21562;SDS011;10942;47.894;11.424;2023-04-10T03:38:35;12.30;;;7.32;;
21562;SDS011;10942;47.894;11.424;2023-04-10T03:41:01;12.52;;;7.90;;
21562;SDS011;10942;47.894;11.424;2023-04-10T03:43:29;15.10;;;7.65;;
21562;SDS011;10942;47.894;11.424;2023-04-10T03:45:55;14.15;;;7.88;;
21562;SDS011;10942;47.894;11.424;2023-04-10T03:48:22;14.23;;;6.93;;
21562;SDS011;10942;47.894;11.424;2023-04-10T03:50:52;12.02;;;6.85;;
21562;SDS011;10942;47.894;11.424;2023-04-10T03:53:18;12.52;;;7.40;;
21562;SDS011;10942;47.894;11.424;2023-04-10T03:55:45;14.63;;;7.70;;
21562;SDS011;10942;47.894;11.424;2023-04-10T03:58:10;11.88;;;6.65;;
21562;SDS011;10942;47.894;11.424;2023-04-10T04:00:37;10.77;;;6.50;;
21562;SDS011;10942;47.894;11.424;2023-04-10T04:03:11;11.82;;;6.75;;
21562;SDS011;10942;47.894;11.424;2023-04-10T04:06:02;10.95;;;5.95;;
21562;SDS011;10942;47.894;11.424;2023-04-10T04:08:35;11.57;;;6.47;;
21562;SDS011;10942;47.894;11.424;2023-04-10T04:11:22;10.95;;;6.15;;
21562;SDS011;10942;47.894;11.424;2023-04-10T04:14:14;9.83;;;6.10;;
21562;SDS011;10942;47.894;11.424;2023-04-10T04:16:42;9.90;;;6.38;;
21562;SDS011;10942;47.894;11.424;2023-04-10T04:19:24;10.27;;;6.22;;
21562;SDS011;10942;47.894;11.424;2023-04-10T04:22:14;11.27;;;6.00;;
21562;SDS011;10942;47.894;11.424;2023-04-10T04:24:58;12.35;;;6.68;;
21562;SDS011;10942;47.894;11.424;2023-04-10T04:27:50;14.07;;;7.22;;
21562;SDS011;10942;47.894;11.424;2023-04-10T04:30:42;15.27;;;7.72;;
21562;SDS011;10942;47.894;11.424;2023-04-10T04:33:25;19.50;;;9.63;;
21562;SDS011;10942;47.894;11.424;2023-04-10T04:35:56;19.95;;;9.63;;
21562;SDS011;10942;47.894;11.424;2023-04-10T04:39:00;15.65;;;7.65;;
21562;SDS011;10942;47.894;11.424;2023-04-10T04:41:44;11.43;;;6.95;;
21562;SDS011;10942;47.894;11.424;2023-04-10T04:44:30;12.57;;;7.40;;
21562;SDS011;10942;47.894;11.424;2023-04-10T04:47:06;13.23;;;7.15;;
21562;SDS011;10942;47.894;11.424;2023-04-10T04:49:49;12.05;;;7.15;;
21562;SDS011;10942;47.894;11.424;2023-04-10T04:52:25;15.55;;;7.55;;
21562;SDS011;10942;47.894;11.424;2023-04-10T04:55:17;11.38;;;6.72;;
21562;SDS011;10942;47.894;11.424;2023-04-10T04:57:52;13.60;;;6.90;;
21562;SDS011;10942;47.894;11.424;2023-04-10T05:00:40;14.45;;;6.70;;
21562;SDS011;10942;47.894;11.424;2023-04-10T05:03:24;15.75;;;8.07;;
21562;SDS011;10942;47.894;11.424;2023-04-10T05:05:59;13.23;;;7.22;;
21562;SDS011;10942;47.894;11.424;2023-04-10T05:08:47;17.33;;;8.57;;
21562;SDS011;10942;47.894;11.424;2023-04-10T05:11:31;16.80;;;8.77;;
21562;SDS011;10942;47.894;11.424;2023-04-10T05:14:26;12.82;;;7.22;;
21562;SDS011;10942;47.894;11.424;2023-04-10T05:17:00;11.65;;;6.70;;
21562;SDS011;10942;47.894;11.424;2023-04-10T05:19:54;12.85;;;7.15;;
21562;SDS011;10942;47.894;11.424;2023-04-10T05:22:39;23.13;;;16.30;;
21562;SDS011;10942;47.894;11.424;2023-04-10T05:25:25;11.80;;;7.43;;
21562;SDS011;10942;47.894;11.424;2023-04-10T05:28:14;12.50;;;8.57;;
21562;SDS011;10942;47.894;11.424;2023-04-10T05:31:06;14.98;;;8.70;;
21562;SDS011;10942;47.894;11.424;2023-04-10T05:33:50;11.05;;;7.07;;
21562;SDS011;10942;47.894;11.424;2023-04-10T05:36:28;14.90;;;9.27;;
21562;SDS011;10942;47.894;11.424;2023-04-10T05:39:22;12.32;;;7.57;;
21562;SDS011;10942;47.894;11.424;2023-04-10T05:42:00;10.40;;;6.68;;
21562;SDS011;10942;47.894;11.424;2023-04-10T05:44:31;9.88;;;6.60;;
21562;SDS011;10942;47.894;11.424;2023-04-10T05:47:04;10.43;;;6.45;;
21562;SDS011;10942;47.894;11.424;2023-04-10T05:49:47;10.02;;;6.50;;
21562;SDS011;10942;47.894;11.424;2023-04-10T05:52:24;10.30;;;6.30;;
21562;SDS011;10942;47.894;11.424;2023-04-10T05:55:02;9.57;;;6.00;;
21562;SDS011;10942;47.894;11.424;2023-04-10T05:57:54;13.63;;;8.73;;
21562;SDS011;10942;47.894;11.424;2023-04-10T06:00:48;11.68;;;7.63;;
21562;SDS011;10942;47.894;11.424;2023-04-10T06:03:37;9.30;;;6.28;;
21562;SDS011;10942;47.894;11.424;2023-04-10T06:06:05;9.35;;;6.03;;
21562;SDS011;10942;47.894;11.424;2023-04-10T06:08:32;8.38;;;5.18;;
21562;SDS011;10942;47.894;11.424;2023-04-10T06:10:58;8.73;;;5.32;;
21562;SDS011;10942;47.894;11.424;2023-04-10T06:13:24;8.45;;;5.57;;
21562;SDS011;10942;47.894;11.424;2023-04-10T06:15:54;7.68;;;5.00;;
21562;SDS011;10942;47.894;11.424;2023-04-10T06:18:21;8.02;;;5.47;;
21562;SDS011;10942;47.894;11.424;2023-04-10T06:20:47;8.40;;;5.63;;
21562;SDS011;10942;47.894;11.424;2023-04-10T06:23:13;9.18;;;6.40;;
21562;SDS011;10942;47.894;11.424;2023-04-10T06:25:38;9.63;;;6.40;;
21562;SDS011;10942;47.894;11.424;2023-04-10T06:28:04;12.18;;;7.70;;
21562;SDS011;10942;47.894;11.424;2023-04-10T06:30:30;8.98;;;5.70;;
21562;SDS011;10942;47.894;11.424;2023-04-10T06:32:59;7.78;;;5.53;;
21562;SDS011;10942;47.894;11.424;2023-04-10T06:35:24;8.00;;;5.15;;
21562;SDS011;10942;47.894;11.424;2023-04-10T06:37:51;11.82;;;9.02;;
21562;SDS011;10942;47.894;11.424;2023-04-10T06:40:17;8.43;;;6.85;;
21562;SDS011;10942;47.894;11.424;2023-04-10T06:42:43;6.97;;;4.57;;
21562;SDS011;10942;47.894;11.424;2023-04-10T06:45:20;7.00;;;4.82;;
21562;SDS011;10942;47.894;11.424;2023-04-10T06:47:45;6.63;;;3.92;;
21562;SDS011;10942;47.894;11.424;2023-04-10T06:50:11;6.00;;;4.30;;
21562;SDS011;10942;47.894;11.424;2023-04-10T06:52:37;7.72;;;4.68;;
21562;SDS011;10942;47.894;11.424;2023-04-10T06:55:03;6.80;;;3.92;;
21562;SDS011;10942;47.894;11.424;2023-04-10T06:57:29;5.72;;;3.80;;
21562;SDS011;10942;47.894;11.424;2023-04-10T06:59:55;6.75;;;3.97;;
21562;SDS011;10942;47.894;11.424;2023-04-10T07:02:21;6.35;;;3.88;;
21562;SDS011;10942;47.894;11.424;2023-04-10T07:04:47;6.85;;;4.10;;
21562;SDS011;10942;47.894;11.424;2023-04-10T07:07:13;6.55;;;4.10;;
21562;SDS011;10942;47.894;11.424;2023-04-10T07:09:40;5.55;;;4.03;;
21562;SDS011;10942;47.894;11.424;2023-04-10T07:12:05;5.80;;;3.88;;
21562;SDS011;10942;47.894;11.424;2023-04-10T07:14:32;6.07;;;3.95;;
21562;SDS011;10942;47.894;11.424;2023-04-10T07:17:01;5.63;;;3.83;;
21562;SDS011;10942;47.894;11.424;2023-04-10T07:19:26;6.45;;;4.22;;
21562;SDS011;10942;47.894;11.424;2023-04-10T07:21:52;9.13;;;5.80;;
21562;SDS011;10942;47.894;11.424;2023-04-10T07:24:18;5.90;;;4.10;;
21562;SDS011;10942;47.894;11.424;2023-04-10T07:26:44;4.82;;;3.67;;
21562;SDS011;10942;47.894;11.424;2023-04-10T07:29:10;4.70;;;3.60;;
21562;SDS011;10942;47.894;11.424;2023-04-10T07:31:36;5.90;;;3.90;;
21562;SDS011;10942;47.894;11.424;2023-04-10T07:34:02;5.25;;;3.53;;
21562;SDS011;10942;47.894;11.424;2023-04-10T07:36:28;4.93;;;3.50;;
21562;SDS011;10942;47.894;11.424;2023-04-10T07:38:54;5.28;;;3.78;;
21562;SDS011;10942;47.894;11.424;2023-04-10T07:41:20;5.25;;;3.40;;
21562;SDS011;10942;47.894;11.424;2023-04-10T07:43:46;4.22;;;2.90;;
21562;SDS011;10942;47.894;11.424;2023-04-10T07:46:12;5.03;;;3.25;;
21562;SDS011;10942;47.894;11.424;2023-04-10T07:48:38;4.20;;;2.92;;
21562;SDS011;10942;47.894;11.424;2023-04-10T07:51:04;4.40;;;3.00;;
21562;SDS011;10942;47.894;11.424;2023-04-10T07:53:33;5.25;;;3.42;;
21562;SDS011;10942;47.894;11.424;2023-04-10T07:56:01;5.50;;;3.10;;
21562;SDS011;10942;47.894;11.424;2023-04-10T07:58:27;4.68;;;3.13;;
21562;SDS011;10942;47.894;11.424;2023-04-10T08:00:53;4.20;;;2.78;;
21562;SDS011;10942;47.894;11.424;2023-04-10T08:03:19;4.18;;;2.70;;
21562;SDS011;10942;47.894;11.424;2023-04-10T08:05:44;3.80;;;2.67;;
21562;SDS011;10942;47.894;11.424;2023-04-10T08:08:10;3.55;;;2.70;;
21562;SDS011;10942;47.894;11.424;2023-04-10T08:10:36;4.75;;;2.70;;
21562;SDS011;10942;47.894;11.424;2023-04-10T08:13:02;4.80;;;3.13;;
21562;SDS011;10942;47.894;11.424;2023-04-10T08:15:28;3.42;;;2.30;;
21562;SDS011;10942;47.894;11.424;2023-04-10T08:17:54;3.95;;;2.53;;
21562;SDS011;10942;47.894;11.424;2023-04-10T08:20:20;5.00;;;2.97;;
21562;SDS011;10942;47.894;11.424;2023-04-10T08:22:46;3.85;;;2.65;;
21562;SDS011;10942;47.894;11.424;2023-04-10T08:25:11;3.72;;;2.40;;
21562;SDS011;10942;47.894;11.424;2023-04-10T08:27:37;5.03;;;3.28;;
21562;SDS011;10942;47.894;11.424;2023-04-10T08:30:05;4.32;;;2.50;;
21562;SDS011;10942;47.894;11.424;2023-04-10T08:32:31;4.00;;;2.78;;
21562;SDS011;10942;47.894;11.424;2023-04-10T08:34:57;5.25;;;3.30;;
21562;SDS011;10942;47.894;11.424;2023-04-10T08:37:23;5.30;;;3.00;;
21562;SDS011;10942;47.894;11.424;2023-04-10T08:39:50;4.05;;;2.58;;
21562;SDS011;10942;47.894;11.424;2023-04-10T08:42:16;5.90;;;3.58;;
21562;SDS011;10942;47.894;11.424;2023-04-10T08:44:42;4.60;;;3.17;;
21562;SDS011;10942;47.894;11.424;2023-04-10T08:47:08;4.22;;;2.72;;
21562;SDS011;10942;47.894;11.424;2023-04-10T08:49:46;3.72;;;2.53;;
21562;SDS011;10942;47.894;11.424;2023-04-10T08:52:19;4.80;;;3.10;;
21562;SDS011;10942;47.894;11.424;2023-04-10T08:54:47;5.15;;;3.55;;
21562;SDS011;10942;47.894;11.424;2023-04-10T08:57:15;4.00;;;2.53;;
21562;SDS011;10942;47.894;11.424;2023-04-10T08:59:48;4.00;;;2.50;;
21562;SDS011;10942;47.894;11.424;2023-04-10T09:02:16;3.90;;;2.53;;
21562;SDS011;10942;47.894;11.424;2023-04-10T09:05:00;4.25;;;2.67;;
21562;SDS011;10942;47.894;11.424;2023-04-10T09:07:28;5.18;;;2.35;;
21562;SDS011;10942;47.894;11.424;2023-04-10T09:09:53;7.32;;;4.55;;
21562;SDS011;10942;47.894;11.424;2023-04-10T09:12:19;3.80;;;2.70;;
21562;SDS011;10942;47.894;11.424;2023-04-10T09:14:45;4.30;;;2.45;;
21562;SDS011;10942;47.894;11.424;2023-04-10T09:17:14;4.60;;;2.70;;
21562;SDS011;10942;47.894;11.424;2023-04-10T09:19:42;4.30;;;2.40;;
21562;SDS011;10942;47.894;11.424;2023-04-10T09:22:08;3.33;;;2.50;;
21562;SDS011;10942;47.894;11.424;2023-04-10T09:24:39;5.30;;;3.22;;
21562;SDS011;10942;47.894;11.424;2023-04-10T09:27:06;3.53;;;2.47;;
21562;SDS011;10942;47.894;11.424;2023-04-10T09:29:40;5.72;;;2.42;;
21562;SDS011;10942;47.894;11.424;2023-04-10T09:35:15;4.18;;;2.45;;
21562;SDS011;10942;47.894;11.424;2023-04-10T09:37:42;4.60;;;2.30;;
21562;SDS011;10942;47.894;11.424;2023-04-10T09:40:18;4.95;;;2.70;;
21562;SDS011;10942;47.894;11.424;2023-04-10T09:42:45;4.07;;;2.22;;
21562;SDS011;10942;47.894;11.424;2023-04-10T09:45:11;3.35;;;2.20;;
21562;SDS011;10942;47.894;11.424;2023-04-10T09:47:37;3.90;;;2.50;;
21562;SDS011;10942;47.894;11.424;2023-04-10T09:50:02;4.70;;;2.58;;
21562;SDS011;10942;47.894;11.424;2023-04-10T09:52:29;3.63;;;2.28;;
21562;SDS011;10942;47.894;11.424;2023-04-10T09:55:02;3.45;;;2.35;;
21562;SDS011;10942;47.894;11.424;2023-04-10T09:57:31;4.20;;;2.50;;
21562;SDS011;10942;47.894;11.424;2023-04-10T09:59:59;3.60;;;2.33;;
21562;SDS011;10942;47.894;11.424;2023-04-10T10:02:33;3.47;;;2.20;;
21562;SDS011;10942;47.894;11.424;2023-04-10T10:05:03;3.60;;;2.40;;
21562;SDS011;10942;47.894;11.424;2023-04-10T10:07:29;3.92;;;2.38;;
21562;SDS011;10942;47.894;11.424;2023-04-10T10:09:56;3.10;;;2.30;;
21562;SDS011;10942;47.894;11.424;2023-04-10T10:12:25;3.42;;;2.17;;
21562;SDS011;10942;47.894;11.424;2023-04-10T10:15:06;3.53;;;2.33;;
21562;SDS011;10942;47.894;11.424;2023-04-10T10:17:50;3.22;;;1.83;;
21562;SDS011;10942;47.894;11.424;2023-04-10T10:20:39;3.45;;;2.50;;
21562;SDS011;10942;47.894;11.424;2023-04-10T10:23:09;2.60;;;1.77;;
21562;SDS011;10942;47.894;11.424;2023-04-10T10:25:35;2.78;;;1.77;;
21562;SDS011;10942;47.894;11.424;2023-04-10T10:28:02;3.85;;;2.30;;
21562;SDS011;10942;47.894;11.424;2023-04-10T10:30:32;3.45;;;2.20;;
21562;SDS011;10942;47.894;11.424;2023-04-10T10:33:00;3.63;;;2.17;;
21562;SDS011;10942;47.894;11.424;2023-04-10T10:35:30;3.45;;;1.85;;
21562;SDS011;10942;47.894;11.424;2023-04-10T10:37:58;3.47;;;2.10;;
21562;SDS011;10942;47.894;11.424;2023-04-10T10:40:32;4.50;;;2.55;;
21562;SDS011;10942;47.894;11.424;2023-04-10T10:43:15;3.20;;;1.88;;
21562;SDS011;10942;47.894;11.424;2023-04-10T10:45:51;4.20;;;2.33;;
21562;SDS011;10942;47.894;11.424;2023-04-10T10:48:19;3.95;;;2.25;;
21562;SDS011;10942;47.894;11.424;2023-04-10T10:50:52;4.10;;;2.30;;
21562;SDS011;10942;47.894;11.424;2023-04-10T10:58:46;3.78;;;2.35;;
21562;SDS011;10942;47.894;11.424;2023-04-10T11:01:12;3.20;;;2.00;;
21562;SDS011;10942;47.894;11.424;2023-04-10T11:03:38;3.80;;;2.22;;
21562;SDS011;10942;47.894;11.424;2023-04-10T11:06:06;3.83;;;2.20;;
21562;SDS011;10942;47.894;11.424;2023-04-10T11:11:10;5.07;;;2.80;;
21562;SDS011;10942;47.894;11.424;2023-04-10T11:19:01;3.60;;;2.40;;
21562;SDS011;10942;47.894;11.424;2023-04-10T11:21:28;3.85;;;2.25;;
21562;SDS011;10942;47.894;11.424;2023-04-10T11:31:40;3.63;;;2.25;;
21562;SDS011;10942;47.894;11.424;2023-04-10T11:34:07;3.53;;;1.80;;
21562;SDS011;10942;47.894;11.424;2023-04-10T11:36:36;3.25;;;1.77;;
21562;SDS011;10942;47.894;11.424;2023-04-10T11:39:04;4.68;;;2.38;;
21562;SDS011;10942;47.894;11.424;2023-04-10T11:41:44;3.25;;;1.98;;
21562;SDS011;10942;47.894;11.424;2023-04-10T11:44:15;3.50;;;2.20;;
21562;SDS011;10942;47.894;11.424;2023-04-10T11:46:59;3.40;;;2.13;;
21562;SDS011;10942;47.894;11.424;2023-04-10T11:49:26;4.13;;;2.28;;
21562;SDS011;10942;47.894;11.424;2023-04-10T11:51:54;4.28;;;2.42;;
21562;SDS011;10942;47.894;11.424;2023-04-10T11:54:21;3.97;;;2.20;;
21562;SDS011;10942;47.894;11.424;2023-04-10T11:59:27;4.65;;;2.58;;
21562;SDS011;10942;47.894;11.424;2023-04-10T12:02:02;4.03;;;2.40;;
21562;SDS011;10942;47.894;11.424;2023-04-10T12:04:33;3.67;;;2.05;;
21562;SDS011;10942;47.894;11.424;2023-04-10T12:06:59;4.28;;;2.47;;
21562;SDS011;10942;47.894;11.424;2023-04-10T12:09:25;3.28;;;1.90;;
21562;SDS011;10942;47.894;11.424;2023-04-10T12:14:28;3.65;;;2.40;;
21562;SDS011;10942;47.894;11.424;2023-04-10T12:16:56;7.57;;;3.88;;
21562;SDS011;10942;47.894;11.424;2023-04-10T12:19:22;4.32;;;2.38;;
21562;SDS011;10942;47.894;11.424;2023-04-10T12:21:49;3.45;;;2.13;;
21562;SDS011;10942;47.894;11.424;2023-04-10T12:27:28;4.53;;;2.35;;
21562;SDS011;10942;47.894;11.424;2023-04-10T12:29:54;4.35;;;2.67;;
21562;SDS011;10942;47.894;11.424;2023-04-10T12:32:21;3.80;;;2.35;;
21562;SDS011;10942;47.894;11.424;2023-04-10T12:34:54;3.80;;;2.38;;
21562;SDS011;10942;47.894;11.424;2023-04-10T12:37:45;4.22;;;2.45;;
21562;SDS011;10942;47.894;11.424;2023-04-10T12:40:18;3.58;;;1.92;;
21562;SDS011;10942;47.894;11.424;2023-04-10T12:42:44;4.00;;;2.38;;
21562;SDS011;10942;47.894;11.424;2023-04-10T12:45:11;3.88;;;2.25;;
21562;SDS011;10942;47.894;11.424;2023-04-10T12:47:47;4.38;;;2.08;;
21562;SDS011;10942;47.894;11.424;2023-04-10T12:50:16;3.58;;;2.10;;
21562;SDS011;10942;47.894;11.424;2023-04-10T12:52:43;3.90;;;2.28;;
21562;SDS011;10942;47.894;11.424;2023-04-10T12:55:17;3.40;;;1.77;;
21562;SDS011;10942;47.894;11.424;2023-04-10T12:57:48;4.15;;;2.25;;
21562;SDS011;10942;47.894;11.424;2023-04-10T13:00:16;3.90;;;2.42;;
21562;SDS011;10942;47.894;11.424;2023-04-10T13:02:44;4.03;;;2.05;;
21562;SDS011;10942;47.894;11.424;2023-04-10T13:05:11;3.72;;;2.22;;
21562;SDS011;10942;47.894;11.424;2023-04-10T13:07:37;4.30;;;2.53;;
21562;SDS011;10942;47.894;11.424;2023-04-10T13:10:03;11.40;;;6.47;;
21562;SDS011;10942;47.894;11.424;2023-04-10T13:12:30;3.30;;;2.03;;
21562;SDS011;10942;47.894;11.424;2023-04-10T13:14:55;3.03;;;1.92;;
21562;SDS011;10942;47.894;11.424;2023-04-10T13:17:21;3.58;;;2.10;;
21562;SDS011;10942;47.894;11.424;2023-04-10T13:19:48;3.10;;;1.92;;
21562;SDS011;10942;47.894;11.424;2023-04-10T13:22:14;3.90;;;2.25;;
21562;SDS011;10942;47.894;11.424;2023-04-10T13:24:41;3.70;;;2.10;;
21562;SDS011;10942;47.894;11.424;2023-04-10T13:27:07;3.85;;;2.40;;
21562;SDS011;10942;47.894;11.424;2023-04-10T13:29:34;3.25;;;1.98;;
21562;SDS011;10942;47.894;11.424;2023-04-10T13:32:00;4.20;;;2.25;;
21562;SDS011;10942;47.894;11.424;2023-04-10T13:34:29;3.67;;;2.15;;
21562;SDS011;10942;47.894;11.424;2023-04-10T13:36:55;3.50;;;1.98;;
21562;SDS011;10942;47.894;11.424;2023-04-10T13:39:21;5.57;;;2.75;;
21562;SDS011;10942;47.894;11.424;2023-04-10T13:41:46;3.88;;;2.10;;
21562;SDS011;10942;47.894;11.424;2023-04-10T13:44:12;3.50;;;1.88;;
21562;SDS011;10942;47.894;11.424;2023-04-10T13:46:38;38.60;;;17.92;;
21562;SDS011;10942;47.894;11.424;2023-04-10T13:49:03;3.85;;;2.20;;
21562;SDS011;10942;47.894;11.424;2023-04-10T13:51:29;3.15;;;1.98;;
21562;SDS011;10942;47.894;11.424;2023-04-10T13:53:55;3.55;;;2.05;;
21562;SDS011;10942;47.894;11.424;2023-04-10T13:56:21;3.25;;;1.95;;
21562;SDS011;10942;47.894;11.424;2023-04-10T13:58:47;2.95;;;2.15;;
21562;SDS011;10942;47.894;11.424;2023-04-10T14:01:13;3.63;;;1.98;;
21562;SDS011;10942;47.894;11.424;2023-04-10T14:03:40;3.25;;;2.00;;
21562;SDS011;10942;47.894;11.424;2023-04-10T14:06:05;3.33;;;2.00;;
21562;SDS011;10942;47.894;11.424;2023-04-10T14:08:31;3.80;;;1.90;;
21562;SDS011;10942;47.894;11.424;2023-04-10T14:10:57;3.15;;;2.28;;
21562;SDS011;10942;47.894;11.424;2023-04-10T14:13:23;3.22;;;1.88;;
21562;SDS011;10942;47.894;11.424;2023-04-10T14:15:49;2.80;;;1.80;;
21562;SDS011;10942;47.894;11.424;2023-04-10T14:18:17;3.80;;;1.90;;
21562;SDS011;10942;47.894;11.424;2023-04-10T14:20:43;3.90;;;2.30;;
21562;SDS011;10942;47.894;11.424;2023-04-10T14:23:10;3.15;;;1.95;;
21562;SDS011;10942;47.894;11.424;2023-04-10T14:25:45;3.95;;;2.25;;
21562;SDS011;10942;47.894;11.424;2023-04-10T14:28:11;2.95;;;1.67;;
21562;SDS011;10942;47.894;11.424;2023-04-10T14:30:46;3.72;;;1.90;;
21562;SDS011;10942;47.894;11.424;2023-04-10T14:33:12;3.78;;;2.35;;
21562;SDS011;10942;47.894;11.424;2023-04-10T14:35:39;3.47;;;2.20;;
21562;SDS011;10942;47.894;11.424;2023-04-10T14:38:04;3.28;;;1.85;;
21562;SDS011;10942;47.894;11.424;2023-04-10T14:40:30;3.60;;;2.13;;
21562;SDS011;10942;47.894;11.424;2023-04-10T14:42:56;3.28;;;1.77;;
21562;SDS011;10942;47.894;11.424;2023-04-10T14:45:21;3.15;;;1.92;;
21562;SDS011;10942;47.894;11.424;2023-04-10T14:47:47;3.45;;;2.10;;
21562;SDS011;10942;47.894;11.424;2023-04-10T14:50:13;4.28;;;2.00;;
21562;SDS011;10942;47.894;11.424;2023-04-10T14:52:38;3.35;;;2.10;;
21562;SDS011;10942;47.894;11.424;2023-04-10T14:55:04;3.35;;;1.83;;
21562;SDS011;10942;47.894;11.424;2023-04-10T14:57:30;3.58;;;1.95;;
21562;SDS011;10942;47.894;11.424;2023-04-10T14:59:56;4.07;;;2.30;;
21562;SDS011;10942;47.894;11.424;2023-04-10T15:02:21;9.85;;;5.70;;
21562;SDS011;10942;47.894;11.424;2023-04-10T15:04:47;5.15;;;2.88;;
21562;SDS011;10942;47.894;11.424;2023-04-10T15:07:13;5.60;;;3.13;;
21562;SDS011;10942;47.894;11.424;2023-04-10T15:09:38;2.95;;;1.80;;
21562;SDS011;10942;47.894;11.424;2023-04-10T15:12:05;5.80;;;2.10;;
21562;SDS011;10942;47.894;11.424;2023-04-10T15:14:31;16.00;;;9.50;;
21562;SDS011;10942;47.894;11.424;2023-04-10T15:16:56;5.25;;;3.08;;
21562;SDS011;10942;47.894;11.424;2023-04-10T15:19:22;4.13;;;2.67;;
21562;SDS011;10942;47.894;11.424;2023-04-10T15:21:48;3.80;;;2.47;;
21562;SDS011;10942;47.894;11.424;2023-04-10T15:24:14;3.53;;;2.15;;
21562;SDS011;10942;47.894;11.424;2023-04-10T15:26:43;4.53;;;2.60;;